sensor_id;sensor_type;location;lat;lon;timestamp;P1;durP1;ratioP1;P2;durP2;ratioP2
5157;SDS011;2598;52.364;9.772;2023-01-01T00:01:32;17.33;;;4.93;;
5157;SDS011;2598;52.364;9.772;2023-01-01T00:04:03;16.23;;;4.30;;
5157;SDS011;2598;52.364;9.772;2023-01-01T00:06:29;15.70;;;4.10;;
5157;SDS011;2598;52.364;9.772;2023-01-01T00:08:55;12.47;;;4.10;;
5157;SDS011;2598;52.364;9.772;2023-01-01T00:11:40;19.40;;;5.50;;
5157;SDS011;2598;52.364;9.772;2023-01-01T00:14:06;15.30;;;4.33;;
5157;SDS011;2598;52.364;9.772;2023-01-01T00:16:32;11.13;;;3.80;;
5157;SDS011;2598;52.364;9.772;2023-01-01T00:18:58;15.43;;;3.30;;
5157;SDS011;2598;52.364;9.772;2023-01-01T00:21:24;10.73;;;3.57;;
5157;SDS011;2598;52.364;9.772;2023-01-01T00:23:50;12.23;;;3.90;;
5157;SDS011;2598;52.364;9.772;2023-01-01T00:26:17;17.10;;;4.83;;
5157;SDS011;2598;52.364;9.772;2023-01-01T00:28:43;15.87;;;4.37;;
5157;SDS011;2598;52.364;9.772;2023-01-01T00:31:10;9.40;;;3.13;;
5157;SDS011;2598;52.364;9.772;2023-01-01T00:33:37;9.20;;;3.27;;
5157;SDS011;2598;52.364;9.772;2023-01-01T00:36:09;21.03;;;3.07;;
5157;SDS011;2598;52.364;9.772;2023-01-01T00:38:35;12.70;;;2.80;;
5157;SDS011;2598;52.364;9.772;2023-01-01T00:41:01;14.30;;;5.30;;
5157;SDS011;2598;52.364;9.772;2023-01-01T00:43:28;14.13;;;3.80;;
5157;SDS011;2598;52.364;9.772;2023-01-01T00:45:54;13.70;;;4.10;;
5157;SDS011;2598;52.364;9.772;2023-01-01T00:48:20;7.93;;;2.87;;
5157;SDS011;2598;52.364;9.772;2023-01-01T00:50:46;9.40;;;2.83;;
5157;SDS011;2598;52.364;9.772;2023-01-01T00:53:12;11.67;;;3.50;;
5157;SDS011;2598;52.364;9.772;2023-01-01T00:55:38;8.70;;;3.30;;
5157;SDS011;2598;52.364;9.772;2023-01-01T00:58:05;13.63;;;3.87;;
5157;SDS011;2598;52.364;9.772;2023-01-01T01:00:31;15.03;;;3.37;;
5157;SDS011;2598;52.364;9.772;2023-01-01T01:02:57;9.33;;;3.20;;
5157;SDS011;2598;52.364;9.772;2023-01-01T01:05:23;18.30;;;3.53;;
5157;SDS011;2598;52.364;9.772;2023-01-01T01:07:49;12.07;;;3.37;;
5157;SDS011;2598;52.364;9.772;2023-01-01T01:10:15;11.83;;;3.50;;
5157;SDS011;2598;52.364;9.772;2023-01-01T01:12:41;12.40;;;3.40;;
5157;SDS011;2598;52.364;9.772;2023-01-01T01:15:07;13.87;;;3.40;;
5157;SDS011;2598;52.364;9.772;2023-01-01T01:17:35;8.60;;;3.23;;
5157;SDS011;2598;52.364;9.772;2023-01-01T01:20:01;11.20;;;3.43;;
5157;SDS011;2598;52.364;9.772;2023-01-01T01:22:27;13.70;;;3.23;;
5157;SDS011;2598;52.364;9.772;2023-01-01T01:24:53;10.37;;;3.67;;
5157;SDS011;2598;52.364;9.772;2023-01-01T01:27:19;18.33;;;3.63;;
5157;SDS011;2598;52.364;9.772;2023-01-01T01:29:45;15.57;;;4.00;;
5157;SDS011;2598;52.364;9.772;2023-01-01T01:32:11;10.40;;;3.90;;
5157;SDS011;2598;52.364;9.772;2023-01-01T01:34:37;10.23;;;3.67;;
5157;SDS011;2598;52.364;9.772;2023-01-01T01:37:03;9.43;;;3.20;;
5157;SDS011;2598;52.364;9.772;2023-01-01T01:39:29;11.43;;;3.90;;
5157;SDS011;2598;52.364;9.772;2023-01-01T01:41:55;11.30;;;3.37;;
5157;SDS011;2598;52.364;9.772;2023-01-01T01:47:06;11.23;;;3.63;;
5157;SDS011;2598;52.364;9.772;2023-01-01T01:49:34;12.60;;;3.60;;
5157;SDS011;2598;52.364;9.772;2023-01-01T01:51:59;12.93;;;3.70;;
5157;SDS011;2598;52.364;9.772;2023-01-01T01:54:26;9.93;;;3.20;;
5157;SDS011;2598;52.364;9.772;2023-01-01T01:56:57;10.17;;;3.80;;
5157;SDS011;2598;52.364;9.772;2023-01-01T01:59:24;9.27;;;3.20;;
5157;SDS011;2598;52.364;9.772;2023-01-01T02:01:51;13.90;;;4.20;;
5157;SDS011;2598;52.364;9.772;2023-01-01T02:04:18;14.90;;;4.67;;
5157;SDS011;2598;52.364;9.772;2023-01-01T02:06:44;13.70;;;3.63;;
5157;SDS011;2598;52.364;9.772;2023-01-01T02:09:10;11.87;;;3.83;;
5157;SDS011;2598;52.364;9.772;2023-01-01T02:11:36;12.53;;;3.57;;
5157;SDS011;2598;52.364;9.772;2023-01-01T02:14:02;11.40;;;3.53;;
5157;SDS011;2598;52.364;9.772;2023-01-01T02:16:32;15.03;;;3.97;;
5157;SDS011;2598;52.364;9.772;2023-01-01T02:31:58;11.70;;;3.40;;
5157;SDS011;2598;52.364;9.772;2023-01-01T02:34:27;10.00;;;3.73;;
5157;SDS011;2598;52.364;9.772;2023-01-01T02:36:54;12.67;;;3.70;;
5157;SDS011;2598;52.364;9.772;2023-01-01T02:39:24;13.17;;;3.33;;
5157;SDS011;2598;52.364;9.772;2023-01-01T02:41:51;14.47;;;3.30;;
5157;SDS011;2598;52.364;9.772;2023-01-01T02:44:18;7.80;;;3.27;;
5157;SDS011;2598;52.364;9.772;2023-01-01T02:46:44;10.50;;;3.63;;
5157;SDS011;2598;52.364;9.772;2023-01-01T02:49:10;9.17;;;3.70;;
5157;SDS011;2598;52.364;9.772;2023-01-01T02:54:09;10.53;;;3.77;;
5157;SDS011;2598;52.364;9.772;2023-01-01T03:09:59;16.83;;;3.57;;
5157;SDS011;2598;52.364;9.772;2023-01-01T03:12:31;16.37;;;3.93;;
5157;SDS011;2598;52.364;9.772;2023-01-01T03:15:15;13.73;;;4.00;;
5157;SDS011;2598;52.364;9.772;2023-01-01T03:17:45;13.93;;;3.77;;
5157;SDS011;2598;52.364;9.772;2023-01-01T03:20:18;8.00;;;3.10;;
5157;SDS011;2598;52.364;9.772;2023-01-01T03:22:46;16.93;;;4.03;;
5157;SDS011;2598;52.364;9.772;2023-01-01T03:25:24;8.83;;;3.80;;
5157;SDS011;2598;52.364;9.772;2023-01-01T03:27:52;12.03;;;3.60;;
5157;SDS011;2598;52.364;9.772;2023-01-01T03:30:21;10.20;;;3.17;;
5157;SDS011;2598;52.364;9.772;2023-01-01T03:33:02;10.23;;;4.00;;
5157;SDS011;2598;52.364;9.772;2023-01-01T03:35:45;22.87;;;4.63;;
5157;SDS011;2598;52.364;9.772;2023-01-01T03:38:14;13.30;;;3.20;;
5157;SDS011;2598;52.364;9.772;2023-01-01T03:40:41;8.60;;;3.47;;
5157;SDS011;2598;52.364;9.772;2023-01-01T03:43:11;9.00;;;3.57;;
5157;SDS011;2598;52.364;9.772;2023-01-01T03:45:39;9.40;;;3.20;;
5157;SDS011;2598;52.364;9.772;2023-01-01T03:48:07;21.03;;;3.47;;
5157;SDS011;2598;52.364;9.772;2023-01-01T03:50:57;9.43;;;3.30;;
5157;SDS011;2598;52.364;9.772;2023-01-01T03:53:24;10.07;;;3.10;;
5157;SDS011;2598;52.364;9.772;2023-01-01T03:55:59;9.07;;;2.40;;
5157;SDS011;2598;52.364;9.772;2023-01-01T03:58:41;17.43;;;2.87;;
5157;SDS011;2598;52.364;9.772;2023-01-01T04:01:14;7.43;;;2.70;;
5157;SDS011;2598;52.364;9.772;2023-01-01T04:03:42;10.40;;;2.77;;
5157;SDS011;2598;52.364;9.772;2023-01-01T04:06:08;7.23;;;2.70;;
5157;SDS011;2598;52.364;9.772;2023-01-01T04:08:34;12.77;;;2.97;;
5157;SDS011;2598;52.364;9.772;2023-01-01T04:11:02;10.07;;;2.70;;
5157;SDS011;2598;52.364;9.772;2023-01-01T04:13:49;13.70;;;2.53;;
5157;SDS011;2598;52.364;9.772;2023-01-01T04:16:15;15.87;;;2.93;;
5157;SDS011;2598;52.364;9.772;2023-01-01T04:18:41;8.33;;;2.47;;
5157;SDS011;2598;52.364;9.772;2023-01-01T04:21:07;6.43;;;2.57;;
5157;SDS011;2598;52.364;9.772;2023-01-01T04:23:33;11.27;;;2.80;;
5157;SDS011;2598;52.364;9.772;2023-01-01T04:25:59;12.60;;;2.93;;
5157;SDS011;2598;52.364;9.772;2023-01-01T04:28:24;8.13;;;2.50;;
5157;SDS011;2598;52.364;9.772;2023-01-01T04:30:51;9.50;;;3.00;;
5157;SDS011;2598;52.364;9.772;2023-01-01T04:33:16;5.53;;;2.60;;
5157;SDS011;2598;52.364;9.772;2023-01-01T04:35:42;10.93;;;2.10;;
5157;SDS011;2598;52.364;9.772;2023-01-01T04:38:11;17.60;;;2.70;;
5157;SDS011;2598;52.364;9.772;2023-01-01T04:40:38;9.60;;;3.10;;
5157;SDS011;2598;52.364;9.772;2023-01-01T04:43:04;8.43;;;2.23;;
5157;SDS011;2598;52.364;9.772;2023-01-01T04:45:30;7.73;;;2.87;;
5157;SDS011;2598;52.364;9.772;2023-01-01T04:47:56;10.30;;;2.33;;
5157;SDS011;2598;52.364;9.772;2023-01-01T04:50:22;10.10;;;2.37;;
5157;SDS011;2598;52.364;9.772;2023-01-01T04:52:48;6.97;;;2.33;;
5157;SDS011;2598;52.364;9.772;2023-01-01T04:55:16;7.93;;;2.33;;
5157;SDS011;2598;52.364;9.772;2023-01-01T04:57:42;8.00;;;2.10;;
5157;SDS011;2598;52.364;9.772;2023-01-01T05:00:08;5.40;;;2.30;;
5157;SDS011;2598;52.364;9.772;2023-01-01T05:02:34;17.30;;;2.47;;
5157;SDS011;2598;52.364;9.772;2023-01-01T05:05:00;13.00;;;2.27;;
5157;SDS011;2598;52.364;9.772;2023-01-01T05:07:26;8.77;;;2.20;;
5157;SDS011;2598;52.364;9.772;2023-01-01T05:09:52;11.20;;;2.10;;
5157;SDS011;2598;52.364;9.772;2023-01-01T05:12:18;7.43;;;2.40;;
5157;SDS011;2598;52.364;9.772;2023-01-01T05:14:44;14.00;;;2.37;;
5157;SDS011;2598;52.364;9.772;2023-01-01T05:17:10;6.40;;;1.90;;
5157;SDS011;2598;52.364;9.772;2023-01-01T05:19:36;6.60;;;2.07;;
5157;SDS011;2598;52.364;9.772;2023-01-01T05:22:02;6.00;;;2.30;;
5157;SDS011;2598;52.364;9.772;2023-01-01T05:24:28;7.93;;;1.97;;
5157;SDS011;2598;52.364;9.772;2023-01-01T05:26:55;14.50;;;2.63;;
5157;SDS011;2598;52.364;9.772;2023-01-01T05:29:21;8.03;;;2.20;;
5157;SDS011;2598;52.364;9.772;2023-01-01T05:31:48;7.47;;;2.13;;
5157;SDS011;2598;52.364;9.772;2023-01-01T05:34:14;7.67;;;2.00;;
5157;SDS011;2598;52.364;9.772;2023-01-01T05:36:40;5.10;;;1.90;;
5157;SDS011;2598;52.364;9.772;2023-01-01T05:39:06;7.40;;;2.20;;
5157;SDS011;2598;52.364;9.772;2023-01-01T05:41:33;9.10;;;2.30;;
5157;SDS011;2598;52.364;9.772;2023-01-01T05:44:00;6.47;;;2.00;;
5157;SDS011;2598;52.364;9.772;2023-01-01T05:46:27;6.67;;;1.90;;
5157;SDS011;2598;52.364;9.772;2023-01-01T05:48:53;7.13;;;2.10;;
5157;SDS011;2598;52.364;9.772;2023-01-01T05:51:20;6.87;;;2.00;;
5157;SDS011;2598;52.364;9.772;2023-01-01T05:53:46;7.47;;;1.80;;
5157;SDS011;2598;52.364;9.772;2023-01-01T05:56:13;8.97;;;1.63;;
5157;SDS011;2598;52.364;9.772;2023-01-01T05:58:40;7.10;;;1.97;;
5157;SDS011;2598;52.364;9.772;2023-01-01T06:01:07;5.80;;;1.90;;
5157;SDS011;2598;52.364;9.772;2023-01-01T06:03:34;6.13;;;1.87;;
5157;SDS011;2598;52.364;9.772;2023-01-01T06:06:04;7.73;;;1.50;;
5157;SDS011;2598;52.364;9.772;2023-01-01T06:08:30;5.53;;;1.60;;
5157;SDS011;2598;52.364;9.772;2023-01-01T06:10:57;5.33;;;1.80;;
5157;SDS011;2598;52.364;9.772;2023-01-01T06:13:23;6.47;;;1.63;;
5157;SDS011;2598;52.364;9.772;2023-01-01T06:15:55;6.00;;;1.90;;
5157;SDS011;2598;52.364;9.772;2023-01-01T06:18:22;5.57;;;1.70;;
5157;SDS011;2598;52.364;9.772;2023-01-01T06:20:48;8.47;;;2.20;;
5157;SDS011;2598;52.364;9.772;2023-01-01T06:23:14;8.27;;;1.77;;
5157;SDS011;2598;52.364;9.772;2023-01-01T06:25:40;7.60;;;1.80;;
5157;SDS011;2598;52.364;9.772;2023-01-01T06:28:06;6.10;;;1.30;;
5157;SDS011;2598;52.364;9.772;2023-01-01T06:30:32;6.77;;;1.60;;
5157;SDS011;2598;52.364;9.772;2023-01-01T06:32:58;4.73;;;1.53;;
5157;SDS011;2598;52.364;9.772;2023-01-01T06:35:25;6.60;;;1.90;;
5157;SDS011;2598;52.364;9.772;2023-01-01T06:37:51;6.63;;;2.10;;
5157;SDS011;2598;52.364;9.772;2023-01-01T06:40:17;7.33;;;1.77;;
5157;SDS011;2598;52.364;9.772;2023-01-01T06:42:43;9.13;;;1.37;;
5157;SDS011;2598;52.364;9.772;2023-01-01T06:45:09;7.80;;;2.37;;
5157;SDS011;2598;52.364;9.772;2023-01-01T06:47:35;4.97;;;1.50;;
5157;SDS011;2598;52.364;9.772;2023-01-01T06:50:02;6.53;;;1.30;;
5157;SDS011;2598;52.364;9.772;2023-01-01T06:52:28;7.00;;;1.90;;
5157;SDS011;2598;52.364;9.772;2023-01-01T06:54:54;9.63;;;1.60;;
5157;SDS011;2598;52.364;9.772;2023-01-01T06:57:20;5.33;;;1.60;;
5157;SDS011;2598;52.364;9.772;2023-01-01T06:59:46;8.03;;;1.87;;
5157;SDS011;2598;52.364;9.772;2023-01-01T07:02:12;6.70;;;1.53;;
5157;SDS011;2598;52.364;9.772;2023-01-01T07:04:38;5.80;;;1.40;;
5157;SDS011;2598;52.364;9.772;2023-01-01T07:07:04;9.10;;;2.20;;
5157;SDS011;2598;52.364;9.772;2023-01-01T07:09:30;5.47;;;1.40;;
5157;SDS011;2598;52.364;9.772;2023-01-01T07:11:56;4.00;;;1.50;;
5157;SDS011;2598;52.364;9.772;2023-01-01T07:14:22;9.10;;;1.80;;
5157;SDS011;2598;52.364;9.772;2023-01-01T07:16:48;4.30;;;1.23;;
5157;SDS011;2598;52.364;9.772;2023-01-01T07:19:14;6.27;;;1.53;;
5157;SDS011;2598;52.364;9.772;2023-01-01T07:21:44;8.53;;;1.60;;
5157;SDS011;2598;52.364;9.772;2023-01-01T07:24:12;10.07;;;2.10;;
5157;SDS011;2598;52.364;9.772;2023-01-01T07:26:39;6.00;;;1.50;;
5157;SDS011;2598;52.364;9.772;2023-01-01T07:29:05;9.87;;;1.83;;
5157;SDS011;2598;52.364;9.772;2023-01-01T07:31:32;6.60;;;1.83;;
5157;SDS011;2598;52.364;9.772;2023-01-01T07:33:58;4.90;;;1.40;;
5157;SDS011;2598;52.364;9.772;2023-01-01T07:36:24;4.90;;;1.50;;
5157;SDS011;2598;52.364;9.772;2023-01-01T07:38:50;6.27;;;1.30;;
5157;SDS011;2598;52.364;9.772;2023-01-01T07:41:16;4.93;;;1.47;;
5157;SDS011;2598;52.364;9.772;2023-01-01T07:43:42;6.33;;;1.60;;
5157;SDS011;2598;52.364;9.772;2023-01-01T07:46:11;4.77;;;1.83;;
5157;SDS011;2598;52.364;9.772;2023-01-01T07:48:40;6.17;;;1.73;;
5157;SDS011;2598;52.364;9.772;2023-01-01T07:51:06;6.63;;;1.50;;
5157;SDS011;2598;52.364;9.772;2023-01-01T07:53:32;7.43;;;1.43;;
5157;SDS011;2598;52.364;9.772;2023-01-01T07:55:58;6.30;;;1.30;;
5157;SDS011;2598;52.364;9.772;2023-01-01T07:58:23;6.30;;;1.50;;
5157;SDS011;2598;52.364;9.772;2023-01-01T08:00:50;9.03;;;1.50;;
5157;SDS011;2598;52.364;9.772;2023-01-01T08:03:17;4.57;;;1.20;;
5157;SDS011;2598;52.364;9.772;2023-01-01T08:05:43;7.40;;;2.10;;
5157;SDS011;2598;52.364;9.772;2023-01-01T08:08:09;6.30;;;1.60;;
5157;SDS011;2598;52.364;9.772;2023-01-01T08:10:35;8.63;;;1.63;;
5157;SDS011;2598;52.364;9.772;2023-01-01T08:13:02;6.47;;;1.83;;
5157;SDS011;2598;52.364;9.772;2023-01-01T08:15:28;8.83;;;1.70;;
5157;SDS011;2598;52.364;9.772;2023-01-01T08:17:58;15.00;;;2.27;;
5157;SDS011;2598;52.364;9.772;2023-01-01T08:20:25;8.80;;;1.80;;
5157;SDS011;2598;52.364;9.772;2023-01-01T08:22:51;5.53;;;1.60;;
5157;SDS011;2598;52.364;9.772;2023-01-01T08:25:17;7.83;;;1.87;;
5157;SDS011;2598;52.364;9.772;2023-01-01T08:27:43;7.33;;;1.67;;
5157;SDS011;2598;52.364;9.772;2023-01-01T08:30:10;5.03;;;1.30;;
5157;SDS011;2598;52.364;9.772;2023-01-01T08:32:36;10.50;;;1.60;;
5157;SDS011;2598;52.364;9.772;2023-01-01T08:35:02;5.87;;;2.40;;
5157;SDS011;2598;52.364;9.772;2023-01-01T08:37:28;4.87;;;1.23;;
5157;SDS011;2598;52.364;9.772;2023-01-01T08:39:54;5.43;;;1.37;;
5157;SDS011;2598;52.364;9.772;2023-01-01T08:42:20;5.60;;;1.70;;
5157;SDS011;2598;52.364;9.772;2023-01-01T08:44:46;5.43;;;1.73;;
5157;SDS011;2598;52.364;9.772;2023-01-01T08:47:19;5.33;;;1.60;;
5157;SDS011;2598;52.364;9.772;2023-01-01T08:49:45;10.87;;;1.90;;
5157;SDS011;2598;52.364;9.772;2023-01-01T08:52:11;12.20;;;1.77;;
5157;SDS011;2598;52.364;9.772;2023-01-01T08:54:37;6.67;;;1.83;;
5157;SDS011;2598;52.364;9.772;2023-01-01T08:57:03;4.73;;;1.50;;
5157;SDS011;2598;52.364;9.772;2023-01-01T08:59:29;7.83;;;1.80;;
5157;SDS011;2598;52.364;9.772;2023-01-01T09:01:55;6.97;;;1.50;;
5157;SDS011;2598;52.364;9.772;2023-01-01T09:04:21;5.90;;;1.30;;
5157;SDS011;2598;52.364;9.772;2023-01-01T09:06:47;5.80;;;1.60;;
5157;SDS011;2598;52.364;9.772;2023-01-01T09:09:13;7.00;;;1.80;;
5157;SDS011;2598;52.364;9.772;2023-01-01T09:11:43;7.80;;;1.60;;
5157;SDS011;2598;52.364;9.772;2023-01-01T09:14:14;8.53;;;1.60;;
5157;SDS011;2598;52.364;9.772;2023-01-01T09:16:40;7.63;;;1.73;;
5157;SDS011;2598;52.364;9.772;2023-01-01T09:19:06;5.60;;;1.73;;
5157;SDS011;2598;52.364;9.772;2023-01-01T09:21:32;6.97;;;1.47;;
5157;SDS011;2598;52.364;9.772;2023-01-01T09:23:58;7.13;;;1.70;;
5157;SDS011;2598;52.364;9.772;2023-01-01T09:26:24;10.90;;;1.50;;
5157;SDS011;2598;52.364;9.772;2023-01-01T09:28:50;5.30;;;1.57;;
5157;SDS011;2598;52.364;9.772;2023-01-01T09:31:17;6.07;;;1.57;;
5157;SDS011;2598;52.364;9.772;2023-01-01T09:33:43;5.10;;;1.30;;
5157;SDS011;2598;52.364;9.772;2023-01-01T09:36:12;5.23;;;1.50;;
5157;SDS011;2598;52.364;9.772;2023-01-01T09:38:38;6.13;;;1.60;;
5157;SDS011;2598;52.364;9.772;2023-01-01T09:46:18;7.90;;;1.93;;
5157;SDS011;2598;52.364;9.772;2023-01-01T09:48:54;5.70;;;1.47;;
5157;SDS011;2598;52.364;9.772;2023-01-01T09:51:21;11.43;;;2.70;;
5157;SDS011;2598;52.364;9.772;2023-01-01T09:53:50;6.10;;;1.50;;
5157;SDS011;2598;52.364;9.772;2023-01-01T09:56:20;8.67;;;1.70;;
5157;SDS011;2598;52.364;9.772;2023-01-01T09:58:47;6.90;;;2.13;;
5157;SDS011;2598;52.364;9.772;2023-01-01T10:06:26;13.53;;;1.97;;
5157;SDS011;2598;52.364;9.772;2023-01-01T10:08:56;5.97;;;1.67;;
5157;SDS011;2598;52.364;9.772;2023-01-01T10:11:30;11.07;;;1.80;;
5157;SDS011;2598;52.364;9.772;2023-01-01T10:14:01;7.67;;;1.70;;
5157;SDS011;2598;52.364;9.772;2023-01-01T10:16:38;10.23;;;1.60;;
5157;SDS011;2598;52.364;9.772;2023-01-01T10:19:19;8.40;;;1.57;;
5157;SDS011;2598;52.364;9.772;2023-01-01T10:21:47;5.80;;;1.80;;
5157;SDS011;2598;52.364;9.772;2023-01-01T10:24:27;7.60;;;1.80;;
5157;SDS011;2598;52.364;9.772;2023-01-01T10:26:56;7.20;;;1.80;;
5157;SDS011;2598;52.364;9.772;2023-01-01T10:29:25;6.23;;;1.90;;
5157;SDS011;2598;52.364;9.772;2023-01-01T10:31:53;5.63;;;1.63;;
5157;SDS011;2598;52.364;9.772;2023-01-01T10:34:22;8.07;;;1.93;;
5157;SDS011;2598;52.364;9.772;2023-01-01T10:36:50;6.57;;;1.63;;
5157;SDS011;2598;52.364;9.772;2023-01-01T10:39:17;6.93;;;2.00;;
5157;SDS011;2598;52.364;9.772;2023-01-01T10:41:44;12.83;;;1.93;;
5157;SDS011;2598;52.364;9.772;2023-01-01T10:44:14;8.73;;;2.13;;
5157;SDS011;2598;52.364;9.772;2023-01-01T10:46:42;7.63;;;1.70;;
5157;SDS011;2598;52.364;9.772;2023-01-01T10:49:10;7.63;;;1.97;;
5157;SDS011;2598;52.364;9.772;2023-01-01T10:51:40;9.10;;;1.97;;
5157;SDS011;2598;52.364;9.772;2023-01-01T10:54:16;10.33;;;2.27;;
5157;SDS011;2598;52.364;9.772;2023-01-01T10:56:47;7.63;;;2.03;;
5157;SDS011;2598;52.364;9.772;2023-01-01T10:59:33;17.53;;;2.03;;
5157;SDS011;2598;52.364;9.772;2023-01-01T11:04:40;9.53;;;1.97;;
5157;SDS011;2598;52.364;9.772;2023-01-01T11:07:06;7.23;;;2.10;;
5157;SDS011;2598;52.364;9.772;2023-01-01T11:09:32;15.43;;;2.10;;
5157;SDS011;2598;52.364;9.772;2023-01-01T11:12:03;13.13;;;3.10;;
5157;SDS011;2598;52.364;9.772;2023-01-01T11:16:58;8.10;;;3.17;;
5157;SDS011;2598;52.364;9.772;2023-01-01T11:19:31;8.20;;;2.70;;
5157;SDS011;2598;52.364;9.772;2023-01-01T11:21:58;6.73;;;2.63;;
5157;SDS011;2598;52.364;9.772;2023-01-01T11:24:26;5.20;;;1.83;;
5157;SDS011;2598;52.364;9.772;2023-01-01T11:26:53;7.17;;;1.70;;
5157;SDS011;2598;52.364;9.772;2023-01-01T11:29:36;6.50;;;1.67;;
5157;SDS011;2598;52.364;9.772;2023-01-01T11:32:02;7.03;;;2.00;;
5157;SDS011;2598;52.364;9.772;2023-01-01T11:34:31;9.70;;;1.40;;
5157;SDS011;2598;52.364;9.772;2023-01-01T11:37:06;6.63;;;1.60;;
5157;SDS011;2598;52.364;9.772;2023-01-01T11:39:33;5.53;;;1.40;;
5157;SDS011;2598;52.364;9.772;2023-01-01T11:42:01;6.80;;;1.87;;
5157;SDS011;2598;52.364;9.772;2023-01-01T11:44:31;4.63;;;1.30;;
5157;SDS011;2598;52.364;9.772;2023-01-01T11:46:58;4.87;;;1.20;;
5157;SDS011;2598;52.364;9.772;2023-01-01T11:49:25;7.43;;;1.43;;
5157;SDS011;2598;52.364;9.772;2023-01-01T11:51:52;6.60;;;1.60;;
5157;SDS011;2598;52.364;9.772;2023-01-01T11:54:23;4.30;;;1.30;;
5157;SDS011;2598;52.364;9.772;2023-01-01T11:56:51;6.87;;;1.43;;
5157;SDS011;2598;52.364;9.772;2023-01-01T11:59:17;5.20;;;1.47;;
5157;SDS011;2598;52.364;9.772;2023-01-01T12:01:48;6.80;;;1.50;;
5157;SDS011;2598;52.364;9.772;2023-01-01T12:04:17;7.60;;;1.80;;
5157;SDS011;2598;52.364;9.772;2023-01-01T12:07:03;10.00;;;1.40;;
5157;SDS011;2598;52.364;9.772;2023-01-01T12:10:16;7.70;;;2.27;;
5157;SDS011;2598;52.364;9.772;2023-01-01T12:17:32;5.10;;;1.63;;
5157;SDS011;2598;52.364;9.772;2023-01-01T12:20:10;5.77;;;1.87;;
5157;SDS011;2598;52.364;9.772;2023-01-01T12:22:37;9.03;;;1.80;;
5157;SDS011;2598;52.364;9.772;2023-01-01T12:25:03;8.07;;;1.47;;
5157;SDS011;2598;52.364;9.772;2023-01-01T12:27:36;6.90;;;1.50;;
5157;SDS011;2598;52.364;9.772;2023-01-01T12:30:09;5.20;;;1.50;;
5157;SDS011;2598;52.364;9.772;2023-01-01T12:32:50;6.47;;;1.83;;
5157;SDS011;2598;52.364;9.772;2023-01-01T12:35:27;8.03;;;1.87;;
5157;SDS011;2598;52.364;9.772;2023-01-01T12:43:26;11.30;;;5.00;;
5157;SDS011;2598;52.364;9.772;2023-01-01T12:46:05;6.23;;;2.00;;
5157;SDS011;2598;52.364;9.772;2023-01-01T12:48:46;5.00;;;1.43;;
5157;SDS011;2598;52.364;9.772;2023-01-01T12:53:45;6.07;;;1.60;;
5157;SDS011;2598;52.364;9.772;2023-01-01T12:58:47;7.67;;;1.70;;
5157;SDS011;2598;52.364;9.772;2023-01-01T13:01:23;8.23;;;1.80;;
5157;SDS011;2598;52.364;9.772;2023-01-01T13:03:58;6.93;;;2.00;;
5157;SDS011;2598;52.364;9.772;2023-01-01T13:06:28;6.10;;;1.63;;
5157;SDS011;2598;52.364;9.772;2023-01-01T13:08:58;7.07;;;1.50;;
5157;SDS011;2598;52.364;9.772;2023-01-01T13:11:26;5.83;;;1.27;;
5157;SDS011;2598;52.364;9.772;2023-01-01T13:13:53;14.53;;;2.73;;
5157;SDS011;2598;52.364;9.772;2023-01-01T13:16:32;6.33;;;1.80;;
5157;SDS011;2598;52.364;9.772;2023-01-01T13:18:58;7.07;;;2.27;;
5157;SDS011;2598;52.364;9.772;2023-01-01T13:21:24;7.40;;;2.10;;
5157;SDS011;2598;52.364;9.772;2023-01-01T13:23:52;7.10;;;1.90;;
5157;SDS011;2598;52.364;9.772;2023-01-01T13:31:17;8.50;;;1.70;;
5157;SDS011;2598;52.364;9.772;2023-01-01T13:33:43;7.13;;;1.77;;
5157;SDS011;2598;52.364;9.772;2023-01-01T13:38:54;9.03;;;2.00;;
5157;SDS011;2598;52.364;9.772;2023-01-01T13:41:39;6.30;;;2.33;;
5157;SDS011;2598;52.364;9.772;2023-01-01T13:46:43;7.10;;;1.97;;
5157;SDS011;2598;52.364;9.772;2023-01-01T13:52:04;7.87;;;1.80;;
5157;SDS011;2598;52.364;9.772;2023-01-01T14:00:04;6.07;;;2.00;;
5157;SDS011;2598;52.364;9.772;2023-01-01T14:05:28;9.80;;;2.70;;
5157;SDS011;2598;52.364;9.772;2023-01-01T14:07:56;8.50;;;2.50;;
5157;SDS011;2598;52.364;9.772;2023-01-01T14:12:48;8.20;;;2.60;;
5157;SDS011;2598;52.364;9.772;2023-01-01T14:17:50;7.77;;;3.20;;
5157;SDS011;2598;52.364;9.772;2023-01-01T14:20:17;10.03;;;2.83;;
5157;SDS011;2598;52.364;9.772;2023-01-01T14:22:44;10.60;;;2.93;;
5157;SDS011;2598;52.364;9.772;2023-01-01T14:25:14;9.13;;;2.83;;
5157;SDS011;2598;52.364;9.772;2023-01-01T14:27:41;11.10;;;3.20;;
5157;SDS011;2598;52.364;9.772;2023-01-01T14:30:14;10.57;;;3.33;;
5157;SDS011;2598;52.364;9.772;2023-01-01T14:32:40;6.47;;;2.70;;
5157;SDS011;2598;52.364;9.772;2023-01-01T14:35:14;8.47;;;2.80;;
5157;SDS011;2598;52.364;9.772;2023-01-01T14:37:41;7.60;;;2.40;;
5157;SDS011;2598;52.364;9.772;2023-01-01T14:40:14;7.00;;;3.30;;
5157;SDS011;2598;52.364;9.772;2023-01-01T14:42:41;6.07;;;2.70;;
5157;SDS011;2598;52.364;9.772;2023-01-01T14:45:15;15.60;;;2.60;;
5157;SDS011;2598;52.364;9.772;2023-01-01T14:47:43;10.30;;;3.10;;
5157;SDS011;2598;52.364;9.772;2023-01-01T14:50:12;12.60;;;3.20;;
5157;SDS011;2598;52.364;9.772;2023-01-01T14:52:39;8.83;;;3.00;;
5157;SDS011;2598;52.364;9.772;2023-01-01T14:55:05;7.70;;;2.90;;
5157;SDS011;2598;52.364;9.772;2023-01-01T14:57:33;9.60;;;3.30;;
5157;SDS011;2598;52.364;9.772;2023-01-01T14:59:59;7.27;;;2.73;;
5157;SDS011;2598;52.364;9.772;2023-01-01T15:02:26;8.77;;;3.30;;
5157;SDS011;2598;52.364;9.772;2023-01-01T15:04:54;9.13;;;3.00;;
5157;SDS011;2598;52.364;9.772;2023-01-01T15:07:24;8.83;;;3.17;;
5157;SDS011;2598;52.364;9.772;2023-01-01T15:09:51;6.57;;;2.50;;
5157;SDS011;2598;52.364;9.772;2023-01-01T15:12:17;9.10;;;2.67;;
5157;SDS011;2598;52.364;9.772;2023-01-01T15:14:45;8.97;;;2.87;;
5157;SDS011;2598;52.364;9.772;2023-01-01T15:17:12;8.13;;;3.10;;
5157;SDS011;2598;52.364;9.772;2023-01-01T15:19:39;8.40;;;3.00;;
5157;SDS011;2598;52.364;9.772;2023-01-01T15:22:25;9.60;;;3.40;;
5157;SDS011;2598;52.364;9.772;2023-01-01T15:24:52;9.50;;;4.20;;
5157;SDS011;2598;52.364;9.772;2023-01-01T15:27:23;11.70;;;3.43;;
5157;SDS011;2598;52.364;9.772;2023-01-01T15:29:49;10.53;;;3.13;;
5157;SDS011;2598;52.364;9.772;2023-01-01T15:32:18;12.10;;;4.00;;
5157;SDS011;2598;52.364;9.772;2023-01-01T15:34:48;11.13;;;3.20;;
5157;SDS011;2598;52.364;9.772;2023-01-01T15:37:19;9.90;;;3.40;;
5157;SDS011;2598;52.364;9.772;2023-01-01T15:39:47;7.40;;;2.93;;
5157;SDS011;2598;52.364;9.772;2023-01-01T15:42:30;10.30;;;3.20;;
5157;SDS011;2598;52.364;9.772;2023-01-01T15:45:13;10.20;;;3.80;;
5157;SDS011;2598;52.364;9.772;2023-01-01T15:47:39;13.10;;;3.70;;
5157;SDS011;2598;52.364;9.772;2023-01-01T15:50:06;9.67;;;4.00;;
5157;SDS011;2598;52.364;9.772;2023-01-01T15:52:32;8.70;;;4.80;;
5157;SDS011;2598;52.364;9.772;2023-01-01T15:54:58;10.60;;;3.83;;
5157;SDS011;2598;52.364;9.772;2023-01-01T15:57:24;11.40;;;4.27;;
5157;SDS011;2598;52.364;9.772;2023-01-01T15:59:51;10.57;;;4.50;;
5157;SDS011;2598;52.364;9.772;2023-01-01T16:02:23;9.73;;;4.10;;
5157;SDS011;2598;52.364;9.772;2023-01-01T16:04:51;9.73;;;4.60;;
5157;SDS011;2598;52.364;9.772;2023-01-01T16:07:21;11.40;;;6.90;;
5157;SDS011;2598;52.364;9.772;2023-01-01T16:09:48;17.67;;;7.60;;
5157;SDS011;2598;52.364;9.772;2023-01-01T16:12:14;12.90;;;6.57;;
5157;SDS011;2598;52.364;9.772;2023-01-01T16:14:41;16.23;;;6.27;;
5157;SDS011;2598;52.364;9.772;2023-01-01T16:17:11;13.03;;;6.20;;
5157;SDS011;2598;52.364;9.772;2023-01-01T16:19:38;11.40;;;5.50;;
5157;SDS011;2598;52.364;9.772;2023-01-01T16:22:05;14.10;;;4.90;;
5157;SDS011;2598;52.364;9.772;2023-01-01T16:24:31;9.77;;;4.60;;
5157;SDS011;2598;52.364;9.772;2023-01-01T16:26:59;10.03;;;4.50;;
5157;SDS011;2598;52.364;9.772;2023-01-01T16:29:25;13.00;;;4.53;;
5157;SDS011;2598;52.364;9.772;2023-01-01T16:31:50;13.40;;;5.20;;
5157;SDS011;2598;52.364;9.772;2023-01-01T16:34:17;140.47;;;111.47;;
5157;SDS011;2598;52.364;9.772;2023-01-01T16:36:43;101.07;;;75.97;;
5157;SDS011;2598;52.364;9.772;2023-01-01T16:39:09;64.03;;;48.90;;
5157;SDS011;2598;52.364;9.772;2023-01-01T16:41:37;43.60;;;33.27;;
5157;SDS011;2598;52.364;9.772;2023-01-01T16:44:04;29.30;;;17.70;;
5157;SDS011;2598;52.364;9.772;2023-01-01T16:46:30;13.60;;;7.50;;